Accueil
METAR-TAF:

METAR-TAF

Aéroports :

Aéroport exécutif Gatineau-Ottawa

Gatineau, Québec, Canada

latitude: 45-31N, longitude: 075-34W, altitude: 64 m

Observation

Le bulletin a été fait il y a 6 heures et 54 minutes, à 02:00 UTC
Vent 2 kt de nord
Température -16°C
Humidité 92%
Pression 1023 hPa
Visibilité: 24.1 km
Quelques nuages à une hauteur de 12000 ft

METAR: CYND 110200Z 01002KT 15SM FEW120 M16/M17 A3020 RMK AC1 LAST STFD OBS/NEXT 111200 UTC SLP235

Heure: 03:54 (08:54 UTC)

Prévision

Le bulletin a été fait il y a 9 heures et 16 minutes, à 23:38 UTC
Prévision valable du 11 à 00 UTC au 11 à 02 UTC
Vent 3 kt de direction variable
Visibilité: 10 km
Quelques nuages à une hauteur de 3000 ft

TAF: CYND 102338Z 1100/1102 VRB03KT P6SM FEW030 RMK NXT FCST WILL BE ISSUED AT 111345Z

Observations et prévisions météorologiques de plus de 4000 aéroports (messages METAR et TAF).

Les stations disponibles sont représentées par des disques jaunes et rouges sur la carte.

Passer la souris dessus pour voir le nom de la station.

Cliquer dessus pour voir les observations et prévisions météorologiques.

Pour changer de carte: cliquez sur les boutons verts avec une croix noire pour zoomer, sur le bouton vert avec un tiret pour effectuer un zoom arrière, ou sur les flèches vertes pour les cartes adjacentes.


METAR-TAF: